createdAt,value
2022-08-28T00:01:05.045Z,20.70
2022-08-28T00:04:07.834Z,20.61
2022-08-28T00:07:11.781Z,20.72
2022-08-28T00:10:16.973Z,20.60
2022-08-28T00:13:25.433Z,20.58
2022-08-28T00:16:28.224Z,20.58
2022-08-28T00:19:33.479Z,20.45
2022-08-28T00:22:39.351Z,20.51
2022-08-28T00:25:42.366Z,20.50
2022-08-28T00:28:45.350Z,20.41
2022-08-28T00:31:48.176Z,20.54
2022-08-28T00:34:50.862Z,20.52
2022-08-28T00:37:55.339Z,20.53
2022-08-28T00:41:04.061Z,20.40
2022-08-28T00:44:12.626Z,20.34
2022-08-28T00:47:15.408Z,20.28
2022-08-28T00:50:20.671Z,20.22
2022-08-28T00:53:23.553Z,20.10
2022-08-28T00:56:33.616Z,20.13
2022-08-28T00:59:38.466Z,19.99
2022-08-28T01:02:41.659Z,20.16
2022-08-28T01:05:48.170Z,20.21
2022-08-28T01:08:52.579Z,20.18
2022-08-28T01:12:02.048Z,20.35
2022-08-28T01:15:10.527Z,20.40
2022-08-28T01:18:16.485Z,20.32
2022-08-28T01:21:26.636Z,20.38
2022-08-28T01:24:32.307Z,20.21
2022-08-28T01:27:35.049Z,20.16
2022-08-28T01:30:37.856Z,20.20
2022-08-28T01:33:41.394Z,20.29
2022-08-28T01:36:46.248Z,20.25
2022-08-28T01:39:50.609Z,20.22
2022-08-28T01:42:53.744Z,20.10
2022-08-28T01:46:02.341Z,20.28
2022-08-28T01:49:05.244Z,20.30
2022-08-28T01:52:09.516Z,20.19
2022-08-28T01:55:15.824Z,20.15
2022-08-28T01:58:25.199Z,19.96
2022-08-28T02:01:30.554Z,20.15
2022-08-28T02:04:33.928Z,20.14
2022-08-28T02:07:36.888Z,20.00
2022-08-28T02:10:44.590Z,20.05
2022-08-28T02:13:47.344Z,20.12
2022-08-28T02:16:53.636Z,20.12
2022-08-28T02:19:56.462Z,20.07
2022-08-28T02:22:59.473Z,19.88
2022-08-28T02:26:03.714Z,19.90
2022-08-28T02:29:06.790Z,19.88
2022-08-28T02:32:09.456Z,19.75
2022-08-28T02:35:13.877Z,19.74
2022-08-28T02:38:17.099Z,19.59
2022-08-28T02:41:23.330Z,19.74
2022-08-28T02:44:25.988Z,19.77
2022-08-28T02:47:29.180Z,19.79
2022-08-28T02:50:32.175Z,19.65
2022-08-28T02:53:35.149Z,19.37
2022-08-28T02:56:39.297Z,19.48
2022-08-28T02:59:43.499Z,19.50
2022-08-28T03:02:46.917Z,19.47
2022-08-28T03:05:49.943Z,19.61
2022-08-28T03:08:52.578Z,19.53
2022-08-28T03:11:56.969Z,19.41
2022-08-28T03:14:59.813Z,19.15
2022-08-28T03:18:02.558Z,19.24
2022-08-28T03:21:11.371Z,19.30
2022-08-28T03:24:15.157Z,19.35
2022-08-28T03:27:19.777Z,19.19
2022-08-28T03:30:23.909Z,19.16
2022-08-28T03:33:27.511Z,19.18
2022-08-28T03:36:31.481Z,19.13
2022-08-28T03:39:34.234Z,19.21
2022-08-28T03:42:38.735Z,19.20
2022-08-28T03:45:42.405Z,19.20
2022-08-28T03:48:46.122Z,19.21
2022-08-28T03:51:49.097Z,19.23
2022-08-28T03:54:52.057Z,19.10
2022-08-28T03:57:56.465Z,18.97
2022-08-28T04:00:59.130Z,18.86
2022-08-28T04:04:02.192Z,19.00
2022-08-28T04:07:04.847Z,18.96
2022-08-28T04:10:09.005Z,19.00
2022-08-28T04:13:14.977Z,18.94
2022-08-28T04:16:19.666Z,18.93
2022-08-28T04:19:22.538Z,18.92
2022-08-28T04:22:25.322Z,18.92
2022-08-28T04:25:28.361Z,18.80
2022-08-28T04:28:32.987Z,18.57
2022-08-28T04:31:36.447Z,18.70
2022-08-28T04:34:39.503Z,18.59
2022-08-28T04:37:43.788Z,18.57
2022-08-28T04:40:46.572Z,18.40
2022-08-28T04:43:52.822Z,18.34
2022-08-28T04:46:55.533Z,18.42
2022-08-28T04:50:02.393Z,18.39
2022-08-28T04:53:05.115Z,18.34
2022-08-28T04:56:11.448Z,18.29
2022-08-28T04:59:16.370Z,18.28
2022-08-28T05:02:19.257Z,18.30
2022-08-28T05:05:21.858Z,18.25
2022-08-28T05:08:27.877Z,18.08
2022-08-28T05:11:34.326Z,17.99
2022-08-28T05:14:40.013Z,18.01
2022-08-28T05:17:42.647Z,18.01
2022-08-28T05:20:47.843Z,18.05
2022-08-28T05:23:52.882Z,17.75
2022-08-28T05:26:56.954Z,17.68
2022-08-28T05:30:02.340Z,17.90
2022-08-28T05:33:05.301Z,17.91
2022-08-28T05:36:09.155Z,17.78
2022-08-28T05:39:14.761Z,17.60
2022-08-28T05:42:17.792Z,17.59
2022-08-28T05:45:22.653Z,17.54
2022-08-28T05:48:25.305Z,17.73
2022-08-28T05:51:34.460Z,17.79
2022-08-28T05:54:37.304Z,17.65
2022-08-28T05:57:39.994Z,17.66
2022-08-28T06:00:44.866Z,17.49
2022-08-28T06:03:55.214Z,17.44
2022-08-28T06:06:58.904Z,17.38
2022-08-28T06:10:01.945Z,17.48
2022-08-28T06:13:05.920Z,17.65
2022-08-28T06:16:14.037Z,17.77
2022-08-28T06:19:19.040Z,17.88
2022-08-28T06:22:23.590Z,18.06
2022-08-28T06:25:27.518Z,18.08
2022-08-28T06:28:31.098Z,18.17
2022-08-28T06:31:36.948Z,18.12
2022-08-28T06:34:40.618Z,18.19
2022-08-28T06:37:44.570Z,18.33
2022-08-28T06:40:50.439Z,18.47
2022-08-28T06:43:54.106Z,18.53
2022-08-28T06:46:59.500Z,18.45
2022-08-28T06:50:03.206Z,18.48
2022-08-28T06:53:07.256Z,18.43
2022-08-28T06:56:16.210Z,18.57
2022-08-28T06:59:31.031Z,18.19
2022-08-28T07:02:36.587Z,18.35
2022-08-28T07:05:40.374Z,18.67
2022-08-28T07:08:45.825Z,19.00
2022-08-28T07:11:48.692Z,18.95
2022-08-28T07:14:51.349Z,18.85
2022-08-28T07:17:55.367Z,18.92
2022-08-28T07:21:00.567Z,19.07
2022-08-28T07:24:05.182Z,18.94
2022-08-28T07:27:09.063Z,18.95
2022-08-28T07:30:13.126Z,18.93
2022-08-28T07:33:17.306Z,18.98
2022-08-28T07:36:29.055Z,18.85
2022-08-28T07:39:32.694Z,18.78
2022-08-28T07:42:55.106Z,18.83
2022-08-28T07:45:59.648Z,18.73
2022-08-28T07:49:03.800Z,18.77
2022-08-28T07:52:08.772Z,18.47
2022-08-28T07:55:11.443Z,18.60
2022-08-28T07:58:14.478Z,18.79
2022-08-28T08:01:18.020Z,18.40
2022-08-28T08:04:25.042Z,18.52
2022-08-28T08:07:28.839Z,18.60
2022-08-28T08:10:34.353Z,18.83
2022-08-28T08:13:39.259Z,18.97
2022-08-28T08:16:45.231Z,19.14
2022-08-28T08:19:49.354Z,19.30
2022-08-28T08:22:51.969Z,19.35
2022-08-28T08:25:56.210Z,19.36
2022-08-28T08:28:59.521Z,19.49
2022-08-28T08:32:06.096Z,19.69
2022-08-28T08:35:12.790Z,19.71
2022-08-28T08:38:15.746Z,19.43
2022-08-28T08:41:23.091Z,19.59
2022-08-28T08:44:33.544Z,19.36
2022-08-28T08:47:42.430Z,19.31
2022-08-28T08:50:46.640Z,19.27
2022-08-28T08:53:55.672Z,19.40
2022-08-28T08:56:58.413Z,19.25
2022-08-28T09:00:01.489Z,19.47
2022-08-28T09:03:08.318Z,19.41
2022-08-28T09:06:20.441Z,19.54
2022-08-28T09:09:30.378Z,19.39
2022-08-28T09:12:50.326Z,19.17
2022-08-28T09:15:52.989Z,19.23
2022-08-28T09:18:59.160Z,19.27
2022-08-28T09:22:03.449Z,19.39
2022-08-28T09:25:06.775Z,19.44
2022-08-28T09:28:10.536Z,19.37
2022-08-28T09:31:15.969Z,19.47
2022-08-28T09:34:26.875Z,19.17
2022-08-28T09:37:32.900Z,19.22
2022-08-28T09:40:49.629Z,19.31
2022-08-28T09:43:52.480Z,18.93
2022-08-28T09:46:55.277Z,19.01
2022-08-28T09:50:16.103Z,19.12
2022-08-28T09:53:22.851Z,19.02
2022-08-28T09:56:29.648Z,19.05
2022-08-28T09:59:32.804Z,19.12
2022-08-28T10:02:44.083Z,19.28
2022-08-28T10:05:59.256Z,19.15
2022-08-28T10:09:18.349Z,18.94
2022-08-28T10:12:34.346Z,18.97
2022-08-28T10:15:55.255Z,18.80
2022-08-28T10:19:06.758Z,18.73
2022-08-28T10:22:26.232Z,19.00
2022-08-28T10:25:40.081Z,18.83
2022-08-28T10:28:53.034Z,18.89
2022-08-28T10:32:04.710Z,18.86
2022-08-28T10:35:13.822Z,18.86
2022-08-28T10:38:21.537Z,18.78
2022-08-28T10:41:30.860Z,18.85
2022-08-28T10:44:39.828Z,18.92
2022-08-28T10:47:48.622Z,19.10
2022-08-28T10:50:54.476Z,19.23
2022-08-28T10:54:02.944Z,19.14
2022-08-28T10:57:19.016Z,19.01
2022-08-28T11:00:24.011Z,19.02
2022-08-28T11:03:36.682Z,18.90
2022-08-28T11:06:45.231Z,19.02
2022-08-28T11:09:50.183Z,19.03
2022-08-28T11:12:54.394Z,19.05
2022-08-28T11:15:57.295Z,19.01
2022-08-28T11:19:29.533Z,19.23
2022-08-28T11:22:38.281Z,19.24
2022-08-28T11:25:48.988Z,19.24
2022-08-28T11:28:53.667Z,19.22
2022-08-28T11:32:38.118Z,19.25
2022-08-28T11:35:53.375Z,19.36
2022-08-28T11:39:07.097Z,19.25
2022-08-28T11:42:35.757Z,19.20
2022-08-28T11:46:14.577Z,19.26
2022-08-28T11:49:40.267Z,19.33
2022-08-28T11:53:00.852Z,19.39
2022-08-28T11:56:31.809Z,19.49
2022-08-28T11:59:45.322Z,19.50
2022-08-28T12:02:53.411Z,19.63
2022-08-28T12:05:58.174Z,19.60
2022-08-28T12:09:08.267Z,19.85
2022-08-28T12:12:51.948Z,19.72
2022-08-28T12:16:05.245Z,19.62
2022-08-28T12:19:11.127Z,19.75
2022-08-28T12:22:16.180Z,19.72
2022-08-28T12:25:29.167Z,19.71
2022-08-28T12:28:34.305Z,19.72
2022-08-28T12:32:13.730Z,19.59
2022-08-28T12:35:21.771Z,19.65
2022-08-28T12:38:24.551Z,19.64
2022-08-28T12:41:28.247Z,19.52
2022-08-28T12:44:33.817Z,19.64
2022-08-28T12:47:37.966Z,19.74
2022-08-28T12:50:42.146Z,19.73
2022-08-28T12:53:47.818Z,19.81
2022-08-28T12:56:50.756Z,19.70
2022-08-28T13:00:07.592Z,19.91
2022-08-28T13:03:10.425Z,20.31
2022-08-28T13:06:14.848Z,21.36
2022-08-28T13:09:20.126Z,21.73
2022-08-28T13:12:37.813Z,21.80
2022-08-28T13:15:57.856Z,21.66
2022-08-28T13:19:13.478Z,21.54
2022-08-28T13:22:39.647Z,21.46
2022-08-28T13:25:42.326Z,21.71
2022-08-28T13:28:45.211Z,21.90
2022-08-28T13:31:57.542Z,22.52
2022-08-28T13:35:16.615Z,22.80
2022-08-28T13:38:22.305Z,22.80
2022-08-28T13:41:29.908Z,22.78
2022-08-28T13:44:46.369Z,22.78
2022-08-28T13:47:49.038Z,22.89
2022-08-28T13:50:57.734Z,22.62
2022-08-28T13:54:02.068Z,22.42
2022-08-28T13:57:05.553Z,22.13
2022-08-28T14:00:09.894Z,22.44
2022-08-28T14:03:30.268Z,22.18
2022-08-28T14:06:33.209Z,22.11
2022-08-28T14:09:38.488Z,22.37
2022-08-28T14:12:43.408Z,22.60
2022-08-28T14:15:47.405Z,22.85
2022-08-28T14:18:51.442Z,22.59
2022-08-28T14:21:54.107Z,22.68
2022-08-28T14:24:58.611Z,22.45
2022-08-28T14:28:01.262Z,22.72
2022-08-28T14:31:11.071Z,22.66
2022-08-28T14:34:19.560Z,22.92
2022-08-28T14:37:22.244Z,22.85
2022-08-28T14:40:26.252Z,22.81
2022-08-28T14:43:29.635Z,22.70
2022-08-28T14:46:36.618Z,22.92
2022-08-28T14:49:39.471Z,22.95
2022-08-28T14:52:42.233Z,22.98
2022-08-28T14:55:48.662Z,22.79
2022-08-28T14:58:51.400Z,22.89
2022-08-28T15:01:58.303Z,22.97
2022-08-28T15:05:01.031Z,22.97
2022-08-28T15:08:04.796Z,22.97
2022-08-28T15:11:13.221Z,23.03
2022-08-28T15:14:18.201Z,23.01
2022-08-28T15:17:20.976Z,23.03
2022-08-28T15:20:23.939Z,22.99
2022-08-28T15:23:26.575Z,22.97
2022-08-28T15:26:31.334Z,22.99
2022-08-28T15:29:33.966Z,22.88
2022-08-28T15:32:36.910Z,23.04
2022-08-28T15:35:39.703Z,23.02
2022-08-28T15:39:00.070Z,23.00
2022-08-28T15:42:05.480Z,23.04
2022-08-28T15:45:08.694Z,22.93
2022-08-28T15:48:12.118Z,22.84
2022-08-28T15:51:15.496Z,22.73
2022-08-28T15:54:18.740Z,22.66
2022-08-28T15:57:23.249Z,22.50
2022-08-28T16:00:25.945Z,22.49
2022-08-28T16:03:28.928Z,22.52
2022-08-28T16:06:32.009Z,22.23
2022-08-28T16:09:34.654Z,22.34
2022-08-28T16:12:39.595Z,22.37
2022-08-28T16:15:42.255Z,22.42
2022-08-28T16:18:45.714Z,22.38
2022-08-28T16:21:48.874Z,22.41
2022-08-28T16:24:52.122Z,22.43
2022-08-28T16:27:56.733Z,22.34
2022-08-28T16:30:59.415Z,22.30
2022-08-28T16:34:03.509Z,22.33
2022-08-28T16:37:07.947Z,22.30
2022-08-28T16:40:12.747Z,22.15
2022-08-28T16:43:19.159Z,22.15
2022-08-28T16:46:24.328Z,22.06
2022-08-28T16:49:27.366Z,21.99
2022-08-28T16:52:30.264Z,21.95
2022-08-28T16:55:34.077Z,21.88
2022-08-28T16:58:39.267Z,21.85
2022-08-28T17:01:42.604Z,21.83
2022-08-28T17:04:48.283Z,21.77
2022-08-28T17:07:51.954Z,21.71
2022-08-28T17:10:55.802Z,21.73
2022-08-28T17:14:00.409Z,21.56
2022-08-28T17:17:03.321Z,21.56
2022-08-28T17:20:08.209Z,21.45
2022-08-28T17:23:10.254Z,21.38
2022-08-28T17:26:14.668Z,21.41
2022-08-28T17:29:18.893Z,21.46
2022-08-28T17:32:22.452Z,21.43
2022-08-28T17:35:25.182Z,21.36
2022-08-28T17:38:28.102Z,21.22
2022-08-28T17:41:31.548Z,21.12
2022-08-28T17:44:36.957Z,21.02
2022-08-28T17:47:39.631Z,20.92
2022-08-28T17:50:42.489Z,20.82
2022-08-28T17:53:45.130Z,20.71
2022-08-28T17:56:48.317Z,20.60
2022-08-28T17:59:52.345Z,20.45
2022-08-28T18:02:55.048Z,20.35
2022-08-28T18:05:58.039Z,20.28
2022-08-28T18:09:01.126Z,20.21
2022-08-28T18:12:04.227Z,20.10
2022-08-28T18:15:12.521Z,19.99
2022-08-28T18:18:15.546Z,19.90
2022-08-28T18:21:18.354Z,19.90
2022-08-28T18:24:21.065Z,19.73
2022-08-28T18:27:26.457Z,19.65
2022-08-28T18:30:30.792Z,19.62
2022-08-28T18:33:34.319Z,19.60
2022-08-28T18:36:39.481Z,19.58
2022-08-28T18:39:42.322Z,19.49
2022-08-28T18:42:46.850Z,19.46
2022-08-28T18:45:51.820Z,19.41
2022-08-28T18:48:54.495Z,19.31
2022-08-28T18:51:57.245Z,19.23
2022-08-28T18:55:00.739Z,19.18
2022-08-28T18:58:13.265Z,19.11
2022-08-28T19:01:19.895Z,19.09
2022-08-28T19:04:23.652Z,19.06
2022-08-28T19:07:27.387Z,18.98
2022-08-28T19:10:34.988Z,18.91
2022-08-28T19:13:37.946Z,18.84
2022-08-28T19:16:42.177Z,18.81
2022-08-28T19:19:44.773Z,18.77
2022-08-28T19:22:48.921Z,18.71
2022-08-28T19:25:51.602Z,18.65
2022-08-28T19:28:55.309Z,18.61
2022-08-28T19:31:59.997Z,18.56
2022-08-28T19:35:03.504Z,18.52
2022-08-28T19:38:06.454Z,18.44
2022-08-28T19:41:10.323Z,18.35
2022-08-28T19:44:13.420Z,18.38
2022-08-28T19:47:17.410Z,18.65
2022-08-28T19:50:20.974Z,18.89
2022-08-28T19:53:23.595Z,19.02
2022-08-28T19:56:28.182Z,19.11
2022-08-28T19:59:31.003Z,19.10
2022-08-28T20:02:35.411Z,19.08
2022-08-28T20:05:38.185Z,19.08
2022-08-28T20:08:44.288Z,19.00
2022-08-28T20:11:47.082Z,18.95
2022-08-28T20:14:52.864Z,18.95
2022-08-28T20:17:57.747Z,18.93
2022-08-28T20:21:00.677Z,18.96
2022-08-28T20:24:03.622Z,18.93
2022-08-28T20:27:07.135Z,18.85
2022-08-28T20:30:11.021Z,18.73
2022-08-28T20:33:15.593Z,18.67
2022-08-28T20:36:21.096Z,18.68
2022-08-28T20:39:24.497Z,18.63
2022-08-28T20:42:31.699Z,18.65
2022-08-28T20:45:34.707Z,18.58
2022-08-28T20:48:39.099Z,18.43
2022-08-28T20:51:56.931Z,18.31
2022-08-28T20:54:59.677Z,18.39
2022-08-28T20:58:02.581Z,18.42
2022-08-28T21:01:05.814Z,18.33
2022-08-28T21:04:10.141Z,18.30
2022-08-28T21:07:14.029Z,18.26
2022-08-28T21:10:16.803Z,18.29
2022-08-28T21:13:19.570Z,18.25
2022-08-28T21:16:22.914Z,18.18
2022-08-28T21:19:28.541Z,18.13
2022-08-28T21:22:35.311Z,18.03
2022-08-28T21:25:41.484Z,17.96
2022-08-28T21:28:44.465Z,18.01
2022-08-28T21:31:48.586Z,18.06
2022-08-28T21:34:52.829Z,18.07
2022-08-28T21:37:55.476Z,18.09
2022-08-28T21:40:58.262Z,18.07
2022-08-28T21:44:01.146Z,18.05
2022-08-28T21:47:03.936Z,17.94
2022-08-28T21:50:10.800Z,17.92
2022-08-28T21:53:13.421Z,17.83
2022-08-28T21:56:20.156Z,17.83
2022-08-28T21:59:22.824Z,17.85
2022-08-28T22:02:28.602Z,17.79
2022-08-28T22:05:32.638Z,17.81
2022-08-28T22:08:37.168Z,17.83
2022-08-28T22:11:39.909Z,17.75
2022-08-28T22:14:42.536Z,17.68
2022-08-28T22:17:45.313Z,17.66
2022-08-28T22:21:06.969Z,17.50
2022-08-28T22:24:10.585Z,17.41
2022-08-28T22:27:14.426Z,17.43
2022-08-28T22:30:17.723Z,17.44
2022-08-28T22:33:20.505Z,17.41
2022-08-28T22:36:24.741Z,17.33
2022-08-28T22:39:32.067Z,17.17
2022-08-28T22:42:35.058Z,17.04
2022-08-28T22:45:41.313Z,16.86
2022-08-28T22:48:44.330Z,16.85
2022-08-28T22:51:49.164Z,16.95
2022-08-28T22:54:53.227Z,17.01
2022-08-28T22:57:55.982Z,16.90
2022-08-28T23:01:01.019Z,16.86
2022-08-28T23:04:04.160Z,16.82
2022-08-28T23:07:08.405Z,16.93
2022-08-28T23:10:12.506Z,16.96
2022-08-28T23:13:15.333Z,16.89
2022-08-28T23:16:23.817Z,16.88
2022-08-28T23:19:26.794Z,16.91
2022-08-28T23:22:34.459Z,16.85
2022-08-28T23:25:37.285Z,16.85
2022-08-28T23:28:40.432Z,16.92
2022-08-28T23:31:43.680Z,16.90
2022-08-28T23:34:46.481Z,16.93
2022-08-28T23:37:51.883Z,16.96
2022-08-28T23:40:55.169Z,16.89
2022-08-28T23:43:57.969Z,16.88
2022-08-28T23:47:00.789Z,16.76
2022-08-28T23:50:06.880Z,16.76
2022-08-28T23:53:11.538Z,16.68
2022-08-28T23:56:14.314Z,16.66
2022-08-28T23:59:17.193Z,16.63
